Weather at Lifuka Island Airport

Public forecast

Using degrees Celsius for public forecast. Weather courtesy of forecast.io.

Current aviation weather report (METAR) for Lifuka Island Airport

Report is more than 2 hours old.

2022/11/26 06:00 (retrieved 3 hours ago)

NFTL 260600Z 02006KT 9999 FEW017TCU BKN290 28/23 Q1010

Closest aviation forecast (TAF) to Lifuka Island Airport

Closest forecast is Vava'u International Airport, 74.7 nm (138.4 km) NNE.

2022/11/26 06:09 (retrieved 3 hours ago)

TAF NFTV 260507Z 2606/2706 06009KT 9999 FEW018 PROB30 TEMPO 2606/2615 5000 TSRA BKN015 FEW017CB